sensor_id;sensor_type;location;lat;lon;timestamp;P1;durP1;ratioP1;P2;durP2;ratioP2
23716;SDS011;22094;52.130;5.598;2023-04-01T00:00:58;24.75;;;15.27;;
23716;SDS011;22094;52.130;5.598;2023-04-01T00:03:25;23.25;;;15.68;;
23716;SDS011;22094;52.130;5.598;2023-04-01T00:05:52;24.27;;;15.75;;
23716;SDS011;22094;52.130;5.598;2023-04-01T00:08:22;25.10;;;16.98;;
23716;SDS011;22094;52.130;5.598;2023-04-01T00:10:48;26.05;;;17.23;;
23716;SDS011;22094;52.130;5.598;2023-04-01T00:13:13;25.65;;;16.67;;
23716;SDS011;22094;52.130;5.598;2023-04-01T00:15:39;31.05;;;17.65;;
23716;SDS011;22094;52.130;5.598;2023-04-01T00:18:05;35.08;;;18.00;;
23716;SDS011;22094;52.130;5.598;2023-04-01T00:20:31;27.58;;;17.80;;
23716;SDS011;22094;52.130;5.598;2023-04-01T00:22:57;33.13;;;18.55;;
23716;SDS011;22094;52.130;5.598;2023-04-01T00:25:23;33.08;;;19.10;;
23716;SDS011;22094;52.130;5.598;2023-04-01T00:27:49;33.75;;;19.33;;
23716;SDS011;22094;52.130;5.598;2023-04-01T00:30:15;40.97;;;20.20;;
23716;SDS011;22094;52.130;5.598;2023-04-01T00:32:41;40.42;;;20.33;;
23716;SDS011;22094;52.130;5.598;2023-04-01T00:35:07;42.40;;;20.08;;
23716;SDS011;22094;52.130;5.598;2023-04-01T00:37:34;38.00;;;19.05;;
23716;SDS011;22094;52.130;5.598;2023-04-01T00:40:02;38.53;;;18.33;;
23716;SDS011;22094;52.130;5.598;2023-04-01T00:42:30;39.72;;;19.65;;
23716;SDS011;22094;52.130;5.598;2023-04-01T00:44:55;36.30;;;19.38;;
23716;SDS011;22094;52.130;5.598;2023-04-01T00:47:22;43.22;;;19.95;;
23716;SDS011;22094;52.130;5.598;2023-04-01T00:49:51;40.47;;;19.65;;
23716;SDS011;22094;52.130;5.598;2023-04-01T00:52:20;40.05;;;19.85;;
23716;SDS011;22094;52.130;5.598;2023-04-01T00:54:49;50.25;;;20.70;;
23716;SDS011;22094;52.130;5.598;2023-04-01T00:57:28;42.47;;;20.88;;
23716;SDS011;22094;52.130;5.598;2023-04-01T00:59:57;49.35;;;22.27;;
23716;SDS011;22094;52.130;5.598;2023-04-01T01:02:24;55.00;;;23.60;;
23716;SDS011;22094;52.130;5.598;2023-04-01T01:04:49;52.95;;;23.92;;
23716;SDS011;22094;52.130;5.598;2023-04-01T01:21:30;66.35;;;28.20;;
23716;SDS011;22094;52.130;5.598;2023-04-01T01:32:01;73.20;;;31.17;;
23716;SDS011;22094;52.130;5.598;2023-04-01T01:37:34;71.30;;;29.70;;
23716;SDS011;22094;52.130;5.598;2023-04-01T01:40:04;69.25;;;30.60;;
23716;SDS011;22094;52.130;5.598;2023-04-01T01:42:32;74.32;;;29.77;;
23716;SDS011;22094;52.130;5.598;2023-04-01T01:45:01;63.78;;;28.92;;
23716;SDS011;22094;52.130;5.598;2023-04-01T01:47:29;68.30;;;28.63;;
23716;SDS011;22094;52.130;5.598;2023-04-01T01:49:55;59.67;;;28.23;;
23716;SDS011;22094;52.130;5.598;2023-04-01T01:52:22;71.72;;;28.75;;
23716;SDS011;22094;52.130;5.598;2023-04-01T01:57:15;57.05;;;26.52;;
23716;SDS011;22094;52.130;5.598;2023-04-01T01:59:42;50.38;;;23.75;;
23716;SDS011;22094;52.130;5.598;2023-04-01T02:02:10;56.17;;;24.70;;
23716;SDS011;22094;52.130;5.598;2023-04-01T02:04:40;52.15;;;24.52;;
23716;SDS011;22094;52.130;5.598;2023-04-01T02:07:09;50.03;;;24.33;;
23716;SDS011;22094;52.130;5.598;2023-04-01T02:09:39;51.22;;;24.23;;
23716;SDS011;22094;52.130;5.598;2023-04-01T02:12:08;47.38;;;23.10;;
23716;SDS011;22094;52.130;5.598;2023-04-01T02:17:09;51.15;;;23.77;;
23716;SDS011;22094;52.130;5.598;2023-04-01T02:19:40;42.35;;;22.83;;
23716;SDS011;22094;52.130;5.598;2023-04-01T02:22:14;44.70;;;23.35;;
23716;SDS011;22094;52.130;5.598;2023-04-01T02:24:42;51.90;;;24.05;;
23716;SDS011;22094;52.130;5.598;2023-04-01T02:27:10;57.13;;;25.35;;
23716;SDS011;22094;52.130;5.598;2023-04-01T02:29:36;48.67;;;24.58;;
23716;SDS011;22094;52.130;5.598;2023-04-01T02:32:02;48.47;;;24.95;;
23716;SDS011;22094;52.130;5.598;2023-04-01T02:34:29;55.88;;;25.35;;
23716;SDS011;22094;52.130;5.598;2023-04-01T02:36:55;49.72;;;24.95;;
23716;SDS011;22094;52.130;5.598;2023-04-01T02:39:22;49.80;;;23.77;;
23716;SDS011;22094;52.130;5.598;2023-04-01T02:41:47;55.10;;;23.83;;
23716;SDS011;22094;52.130;5.598;2023-04-01T02:44:14;52.30;;;24.45;;
23716;SDS011;22094;52.130;5.598;2023-04-01T02:46:40;45.83;;;23.95;;
23716;SDS011;22094;52.130;5.598;2023-04-01T02:49:06;42.10;;;22.30;;
23716;SDS011;22094;52.130;5.598;2023-04-01T02:51:32;44.78;;;22.17;;
23716;SDS011;22094;52.130;5.598;2023-04-01T02:53:58;35.72;;;19.75;;
23716;SDS011;22094;52.130;5.598;2023-04-01T02:56:24;33.50;;;17.48;;
23716;SDS011;22094;52.130;5.598;2023-04-01T02:58:50;29.17;;;16.83;;
23716;SDS011;22094;52.130;5.598;2023-04-01T03:01:16;29.13;;;15.85;;
23716;SDS011;22094;52.130;5.598;2023-04-01T03:03:42;32.80;;;17.73;;
23716;SDS011;22094;52.130;5.598;2023-04-01T03:06:08;28.85;;;16.60;;
23716;SDS011;22094;52.130;5.598;2023-04-01T03:08:36;33.60;;;17.52;;
23716;SDS011;22094;52.130;5.598;2023-04-01T03:11:01;31.25;;;18.15;;
23716;SDS011;22094;52.130;5.598;2023-04-01T03:13:27;30.50;;;17.95;;
23716;SDS011;22094;52.130;5.598;2023-04-01T03:15:53;29.73;;;18.25;;
23716;SDS011;22094;52.130;5.598;2023-04-01T03:18:19;33.83;;;18.67;;
23716;SDS011;22094;52.130;5.598;2023-04-01T03:20:45;30.35;;;18.08;;
23716;SDS011;22094;52.130;5.598;2023-04-01T03:23:10;34.88;;;18.77;;
23716;SDS011;22094;52.130;5.598;2023-04-01T03:25:36;35.40;;;18.48;;
23716;SDS011;22094;52.130;5.598;2023-04-01T03:28:02;30.75;;;17.23;;
23716;SDS011;22094;52.130;5.598;2023-04-01T03:30:28;30.50;;;16.55;;
23716;SDS011;22094;52.130;5.598;2023-04-01T03:32:58;27.55;;;16.38;;
23716;SDS011;22094;52.130;5.598;2023-04-01T03:35:24;28.67;;;16.73;;
23716;SDS011;22094;52.130;5.598;2023-04-01T03:37:51;28.50;;;15.68;;
23716;SDS011;22094;52.130;5.598;2023-04-01T03:40:17;24.67;;;15.32;;
23716;SDS011;22094;52.130;5.598;2023-04-01T03:42:43;28.00;;;15.90;;
23716;SDS011;22094;52.130;5.598;2023-04-01T03:45:09;25.35;;;15.00;;
23716;SDS011;22094;52.130;5.598;2023-04-01T03:47:36;28.08;;;15.10;;
23716;SDS011;22094;52.130;5.598;2023-04-01T03:50:03;25.95;;;14.63;;
23716;SDS011;22094;52.130;5.598;2023-04-01T03:52:30;24.05;;;14.82;;
23716;SDS011;22094;52.130;5.598;2023-04-01T03:54:55;25.67;;;14.48;;
23716;SDS011;22094;52.130;5.598;2023-04-01T03:57:21;27.02;;;14.90;;
23716;SDS011;22094;52.130;5.598;2023-04-01T03:59:47;28.27;;;15.45;;
23716;SDS011;22094;52.130;5.598;2023-04-01T04:02:14;26.67;;;14.95;;
23716;SDS011;22094;52.130;5.598;2023-04-01T04:04:39;23.10;;;14.00;;
23716;SDS011;22094;52.130;5.598;2023-04-01T04:07:06;26.02;;;13.85;;
23716;SDS011;22094;52.130;5.598;2023-04-01T04:09:31;22.67;;;13.82;;
23716;SDS011;22094;52.130;5.598;2023-04-01T04:15:36;26.55;;;14.05;;
23716;SDS011;22094;52.130;5.598;2023-04-01T04:21:20;24.13;;;13.73;;
23716;SDS011;22094;52.130;5.598;2023-04-01T04:23:52;26.58;;;13.98;;
23716;SDS011;22094;52.130;5.598;2023-04-01T04:26:17;30.60;;;14.88;;
23716;SDS011;22094;52.130;5.598;2023-04-01T04:28:43;27.60;;;15.27;;
23716;SDS011;22094;52.130;5.598;2023-04-01T04:31:12;31.95;;;16.27;;
23716;SDS011;22094;52.130;5.598;2023-04-01T04:33:47;33.83;;;16.85;;
23716;SDS011;22094;52.130;5.598;2023-04-01T04:36:12;34.47;;;16.77;;
23716;SDS011;22094;52.130;5.598;2023-04-01T04:38:44;32.17;;;18.00;;
23716;SDS011;22094;52.130;5.598;2023-04-01T04:41:16;42.85;;;19.20;;
23716;SDS011;22094;52.130;5.598;2023-04-01T04:43:48;45.95;;;20.83;;
23716;SDS011;22094;52.130;5.598;2023-04-01T04:46:15;43.88;;;20.20;;
23716;SDS011;22094;52.130;5.598;2023-04-01T04:48:41;44.58;;;20.48;;
23716;SDS011;22094;52.130;5.598;2023-04-01T04:51:11;48.38;;;21.30;;
23716;SDS011;22094;52.130;5.598;2023-04-01T04:53:41;53.75;;;22.75;;
23716;SDS011;22094;52.130;5.598;2023-04-01T04:56:07;55.80;;;22.77;;
23716;SDS011;22094;52.130;5.598;2023-04-01T04:58:33;54.88;;;22.27;;
23716;SDS011;22094;52.130;5.598;2023-04-01T05:00:59;52.67;;;22.20;;
23716;SDS011;22094;52.130;5.598;2023-04-01T05:03:30;63.88;;;23.88;;
23716;SDS011;22094;52.130;5.598;2023-04-01T05:05:55;63.80;;;21.85;;
23716;SDS011;22094;52.130;5.598;2023-04-01T05:08:21;61.45;;;22.17;;
23716;SDS011;22094;52.130;5.598;2023-04-01T05:10:46;65.47;;;22.20;;
23716;SDS011;22094;52.130;5.598;2023-04-01T05:13:12;63.47;;;21.63;;
23716;SDS011;22094;52.130;5.598;2023-04-01T05:15:37;62.30;;;20.90;;
23716;SDS011;22094;52.130;5.598;2023-04-01T05:18:03;59.53;;;20.85;;
23716;SDS011;22094;52.130;5.598;2023-04-01T05:20:29;58.55;;;19.60;;
23716;SDS011;22094;52.130;5.598;2023-04-01T05:22:58;57.95;;;20.02;;
23716;SDS011;22094;52.130;5.598;2023-04-01T05:25:24;55.28;;;20.23;;
23716;SDS011;22094;52.130;5.598;2023-04-01T05:27:50;56.92;;;20.45;;
23716;SDS011;22094;52.130;5.598;2023-04-01T05:30:16;54.95;;;20.38;;
23716;SDS011;22094;52.130;5.598;2023-04-01T05:32:42;46.63;;;18.50;;
23716;SDS011;22094;52.130;5.598;2023-04-01T05:35:08;54.97;;;18.63;;
23716;SDS011;22094;52.130;5.598;2023-04-01T05:37:35;50.58;;;17.80;;
23716;SDS011;22094;52.130;5.598;2023-04-01T05:40:01;54.08;;;19.05;;
23716;SDS011;22094;52.130;5.598;2023-04-01T05:42:27;48.72;;;18.13;;
23716;SDS011;22094;52.130;5.598;2023-04-01T05:44:53;45.10;;;16.65;;
23716;SDS011;22094;52.130;5.598;2023-04-01T05:47:20;51.75;;;17.27;;
23716;SDS011;22094;52.130;5.598;2023-04-01T05:49:45;45.28;;;17.55;;
23716;SDS011;22094;52.130;5.598;2023-04-01T05:52:11;43.60;;;16.73;;
23716;SDS011;22094;52.130;5.598;2023-04-01T05:54:36;40.03;;;15.48;;
23716;SDS011;22094;52.130;5.598;2023-04-01T05:57:02;47.60;;;17.23;;
23716;SDS011;22094;52.130;5.598;2023-04-01T05:59:28;28.33;;;14.55;;
23716;SDS011;22094;52.130;5.598;2023-04-01T06:01:58;34.42;;;15.10;;
23716;SDS011;22094;52.130;5.598;2023-04-01T06:04:34;32.95;;;14.40;;
23716;SDS011;22094;52.130;5.598;2023-04-01T06:07:13;26.73;;;13.07;;
23716;SDS011;22094;52.130;5.598;2023-04-01T06:09:40;23.02;;;10.50;;
23716;SDS011;22094;52.130;5.598;2023-04-01T06:12:25;20.48;;;9.88;;
23716;SDS011;22094;52.130;5.598;2023-04-01T06:15:16;16.17;;;8.05;;
23716;SDS011;22094;52.130;5.598;2023-04-01T06:18:03;15.00;;;7.50;;
23716;SDS011;22094;52.130;5.598;2023-04-01T06:20:58;12.35;;;7.00;;
23716;SDS011;22094;52.130;5.598;2023-04-01T06:23:45;14.00;;;7.53;;
23716;SDS011;22094;52.130;5.598;2023-04-01T06:26:39;11.68;;;6.47;;
23716;SDS011;22094;52.130;5.598;2023-04-01T06:29:21;13.35;;;6.97;;
23716;SDS011;22094;52.130;5.598;2023-04-01T06:34:56;11.15;;;6.68;;
23716;SDS011;22094;52.130;5.598;2023-04-01T06:37:39;12.63;;;6.50;;
23716;SDS011;22094;52.130;5.598;2023-04-01T06:46:24;12.65;;;6.63;;
23716;SDS011;22094;52.130;5.598;2023-04-01T06:54:34;10.93;;;6.63;;
23716;SDS011;22094;52.130;5.598;2023-04-01T06:57:31;11.27;;;6.28;;
23716;SDS011;22094;52.130;5.598;2023-04-01T06:59:56;12.63;;;6.43;;
23716;SDS011;22094;52.130;5.598;2023-04-01T07:02:29;9.63;;;5.78;;
23716;SDS011;22094;52.130;5.598;2023-04-01T07:05:04;8.90;;;5.50;;
23716;SDS011;22094;52.130;5.598;2023-04-01T07:07:35;9.02;;;5.57;;
23716;SDS011;22094;52.130;5.598;2023-04-01T07:10:18;8.70;;;5.43;;
23716;SDS011;22094;52.130;5.598;2023-04-01T07:12:54;7.82;;;5.50;;
23716;SDS011;22094;52.130;5.598;2023-04-01T07:15:33;7.57;;;4.65;;
23716;SDS011;22094;52.130;5.598;2023-04-01T07:18:15;7.78;;;5.00;;
23716;SDS011;22094;52.130;5.598;2023-04-01T07:20:49;6.47;;;3.72;;
23716;SDS011;22094;52.130;5.598;2023-04-01T07:26:17;5.70;;;3.60;;
23716;SDS011;22094;52.130;5.598;2023-04-01T07:28:48;3.58;;;2.60;;
23716;SDS011;22094;52.130;5.598;2023-04-01T07:31:21;4.57;;;2.88;;
23716;SDS011;22094;52.130;5.598;2023-04-01T07:34:08;4.80;;;2.60;;
23716;SDS011;22094;52.130;5.598;2023-04-01T07:36:47;4.35;;;2.85;;
23716;SDS011;22094;52.130;5.598;2023-04-01T07:50:34;5.78;;;3.60;;
23716;SDS011;22094;52.130;5.598;2023-04-01T07:53:26;6.90;;;3.65;;
23716;SDS011;22094;52.130;5.598;2023-04-01T07:56:25;7.13;;;4.38;;
23716;SDS011;22094;52.130;5.598;2023-04-01T08:01:59;8.13;;;4.80;;
23716;SDS011;22094;52.130;5.598;2023-04-01T08:10:28;6.13;;;4.60;;
23716;SDS011;22094;52.130;5.598;2023-04-01T08:13:04;7.63;;;4.82;;
23716;SDS011;22094;52.130;5.598;2023-04-01T08:18:31;4.00;;;3.20;;
23716;SDS011;22094;52.130;5.598;2023-04-01T08:21:21;4.88;;;3.50;;
23716;SDS011;22094;52.130;5.598;2023-04-01T08:23:51;4.47;;;4.00;;
23716;SDS011;22094;52.130;5.598;2023-04-01T08:26:26;5.57;;;4.40;;
23716;SDS011;22094;52.130;5.598;2023-04-01T08:29:00;4.53;;;4.03;;
23716;SDS011;22094;52.130;5.598;2023-04-01T08:31:39;5.68;;;4.68;;
23716;SDS011;22094;52.130;5.598;2023-04-01T08:34:26;5.57;;;4.78;;
23716;SDS011;22094;52.130;5.598;2023-04-01T08:36:59;5.18;;;4.07;;
23716;SDS011;22094;52.130;5.598;2023-04-01T08:39:36;6.75;;;4.38;;
23716;SDS011;22094;52.130;5.598;2023-04-01T08:50:43;7.07;;;5.95;;
23716;SDS011;22094;52.130;5.598;2023-04-01T08:56:14;10.30;;;6.78;;
23716;SDS011;22094;52.130;5.598;2023-04-01T09:07:04;8.98;;;5.85;;
23716;SDS011;22094;52.130;5.598;2023-04-01T09:09:38;8.15;;;6.13;;
23716;SDS011;22094;52.130;5.598;2023-04-01T09:28:53;9.88;;;6.82;;
23716;SDS011;22094;52.130;5.598;2023-04-01T09:37:19;10.82;;;8.73;;
23716;SDS011;22094;52.130;5.598;2023-04-01T09:42:44;10.55;;;8.70;;
23716;SDS011;22094;52.130;5.598;2023-04-01T09:48:25;10.07;;;8.60;;
23716;SDS011;22094;52.130;5.598;2023-04-01T09:51:24;12.82;;;8.93;;
23716;SDS011;22094;52.130;5.598;2023-04-01T10:19:39;7.90;;;7.00;;
23716;SDS011;22094;52.130;5.598;2023-04-01T10:27:48;7.38;;;6.68;;
23716;SDS011;22094;52.130;5.598;2023-04-01T10:33:27;6.22;;;5.57;;
23716;SDS011;22094;52.130;5.598;2023-04-01T10:50:24;8.85;;;6.50;;
23716;SDS011;22094;52.130;5.598;2023-04-01T11:16:44;4.50;;;4.10;;
23716;SDS011;22094;52.130;5.598;2023-04-01T11:27:44;6.22;;;4.35;;
23716;SDS011;22094;52.130;5.598;2023-04-01T11:33:38;4.65;;;4.15;;
23716;SDS011;22094;52.130;5.598;2023-04-01T11:38:57;5.13;;;4.50;;
23716;SDS011;22094;52.130;5.598;2023-04-01T11:44:16;5.22;;;4.72;;
23716;SDS011;22094;52.130;5.598;2023-04-01T11:47:10;5.53;;;4.85;;
23716;SDS011;22094;52.130;5.598;2023-04-01T11:50:03;6.38;;;4.50;;
23716;SDS011;22094;52.130;5.598;2023-04-01T11:53:10;6.60;;;4.88;;
23716;SDS011;22094;52.130;5.598;2023-04-01T12:04:00;7.15;;;5.05;;
23716;SDS011;22094;52.130;5.598;2023-04-01T12:10:21;7.05;;;5.50;;
23716;SDS011;22094;52.130;5.598;2023-04-01T12:15:32;5.80;;;5.18;;
23716;SDS011;22094;52.130;5.598;2023-04-01T12:21:29;5.78;;;5.13;;
23716;SDS011;22094;52.130;5.598;2023-04-01T12:29:41;6.55;;;5.85;;
23716;SDS011;22094;52.130;5.598;2023-04-01T12:35:12;7.43;;;6.60;;
23716;SDS011;22094;52.130;5.598;2023-04-01T12:40:51;7.47;;;5.85;;
23716;SDS011;22094;52.130;5.598;2023-04-01T12:46:09;7.72;;;5.82;;
23716;SDS011;22094;52.130;5.598;2023-04-01T13:01:55;8.73;;;6.55;;
23716;SDS011;22094;52.130;5.598;2023-04-01T13:15:48;8.77;;;6.55;;
23716;SDS011;22094;52.130;5.598;2023-04-01T13:23:37;11.85;;;7.10;;
23716;SDS011;22094;52.130;5.598;2023-04-01T13:28:39;6.97;;;5.80;;
23716;SDS011;22094;52.130;5.598;2023-04-01T13:34:04;6.00;;;5.22;;
23716;SDS011;22094;52.130;5.598;2023-04-01T13:44:30;5.85;;;5.00;;
23716;SDS011;22094;52.130;5.598;2023-04-01T13:47:30;7.45;;;5.25;;
23716;SDS011;22094;52.130;5.598;2023-04-01T13:50:23;8.05;;;5.72;;
23716;SDS011;22094;52.130;5.598;2023-04-01T14:09:54;7.40;;;5.60;;
23716;SDS011;22094;52.130;5.598;2023-04-01T14:12:46;10.13;;;6.75;;
23716;SDS011;22094;52.130;5.598;2023-04-01T14:16:20;10.38;;;6.95;;
23716;SDS011;22094;52.130;5.598;2023-04-01T14:27:05;13.10;;;7.60;;
23716;SDS011;22094;52.130;5.598;2023-04-01T14:29:42;13.70;;;8.60;;
23716;SDS011;22094;52.130;5.598;2023-04-01T14:32:51;14.88;;;8.93;;
23716;SDS011;22094;52.130;5.598;2023-04-01T14:35:30;12.82;;;8.85;;
23716;SDS011;22094;52.130;5.598;2023-04-01T14:38:26;12.07;;;8.65;;
23716;SDS011;22094;52.130;5.598;2023-04-01T14:40:56;13.77;;;8.80;;
23716;SDS011;22094;52.130;5.598;2023-04-01T14:49:05;13.43;;;8.95;;
23716;SDS011;22094;52.130;5.598;2023-04-01T14:51:48;12.13;;;8.63;;
23716;SDS011;22094;52.130;5.598;2023-04-01T14:54:21;11.43;;;7.90;;
23716;SDS011;22094;52.130;5.598;2023-04-01T14:57:16;13.73;;;8.27;;
23716;SDS011;22094;52.130;5.598;2023-04-01T15:02:51;14.38;;;8.70;;
23716;SDS011;22094;52.130;5.598;2023-04-01T15:05:40;11.02;;;8.20;;
23716;SDS011;22094;52.130;5.598;2023-04-01T15:08:24;11.60;;;8.77;;
23716;SDS011;22094;52.130;5.598;2023-04-01T15:11:12;12.52;;;9.40;;
23716;SDS011;22094;52.130;5.598;2023-04-01T15:14:10;13.02;;;9.27;;
23716;SDS011;22094;52.130;5.598;2023-04-01T15:19:59;10.45;;;7.72;;
23716;SDS011;22094;52.130;5.598;2023-04-01T15:22:44;9.85;;;8.07;;
23716;SDS011;22094;52.130;5.598;2023-04-01T15:28:11;7.57;;;6.47;;
23716;SDS011;22094;52.130;5.598;2023-04-01T15:33:17;7.43;;;6.63;;
23716;SDS011;22094;52.130;5.598;2023-04-01T15:39:05;8.65;;;6.97;;
23716;SDS011;22094;52.130;5.598;2023-04-01T15:42:10;8.00;;;7.05;;
23716;SDS011;22094;52.130;5.598;2023-04-01T15:58:31;7.45;;;6.38;;
23716;SDS011;22094;52.130;5.598;2023-04-01T16:03:57;7.07;;;6.30;;
23716;SDS011;22094;52.130;5.598;2023-04-01T16:06:48;6.95;;;6.25;;
23716;SDS011;22094;52.130;5.598;2023-04-01T16:12:13;6.97;;;6.28;;
23716;SDS011;22094;52.130;5.598;2023-04-01T16:15:03;7.15;;;6.20;;
23716;SDS011;22094;52.130;5.598;2023-04-01T16:20:42;7.90;;;7.10;;
23716;SDS011;22094;52.130;5.598;2023-04-01T16:29:12;7.97;;;7.18;;
23716;SDS011;22094;52.130;5.598;2023-04-01T16:32:02;8.45;;;6.45;;
23716;SDS011;22094;52.130;5.598;2023-04-01T16:45:37;8.45;;;7.55;;
23716;SDS011;22094;52.130;5.598;2023-04-01T16:48:12;9.98;;;8.30;;
23716;SDS011;22094;52.130;5.598;2023-04-01T16:53:17;9.00;;;8.02;;
23716;SDS011;22094;52.130;5.598;2023-04-01T16:55:52;8.95;;;7.95;;
23716;SDS011;22094;52.130;5.598;2023-04-01T17:05:00;11.77;;;8.82;;
23716;SDS011;22094;52.130;5.598;2023-04-01T17:07:21;11.63;;;9.18;;
23716;SDS011;22094;52.130;5.598;2023-04-01T17:13:06;12.70;;;9.43;;
23716;SDS011;22094;52.130;5.598;2023-04-01T17:16:19;11.63;;;9.23;;
23716;SDS011;22094;52.130;5.598;2023-04-01T17:22:01;11.30;;;9.27;;
23716;SDS011;22094;52.130;5.598;2023-04-01T17:27:54;11.00;;;9.40;;
23716;SDS011;22094;52.130;5.598;2023-04-01T17:30:41;15.88;;;12.70;;
23716;SDS011;22094;52.130;5.598;2023-04-01T17:51:59;13.50;;;10.23;;
23716;SDS011;22094;52.130;5.598;2023-04-01T17:55:35;11.50;;;9.75;;
23716;SDS011;22094;52.130;5.598;2023-04-01T17:57:52;12.10;;;10.18;;
23716;SDS011;22094;52.130;5.598;2023-04-01T18:00:26;11.85;;;10.15;;
23716;SDS011;22094;52.130;5.598;2023-04-01T18:05:59;11.88;;;9.77;;
23716;SDS011;22094;52.130;5.598;2023-04-01T18:14:22;14.77;;;11.00;;
23716;SDS011;22094;52.130;5.598;2023-04-01T18:19:43;11.27;;;9.85;;
23716;SDS011;22094;52.130;5.598;2023-04-01T18:22:24;11.05;;;9.40;;
23716;SDS011;22094;52.130;5.598;2023-04-01T18:27:50;11.98;;;10.60;;
23716;SDS011;22094;52.130;5.598;2023-04-01T18:30:37;11.32;;;9.73;;
23716;SDS011;22094;52.130;5.598;2023-04-01T18:45:14;11.52;;;10.30;;
23716;SDS011;22094;52.130;5.598;2023-04-01T18:47:44;14.52;;;10.90;;
23716;SDS011;22094;52.130;5.598;2023-04-01T18:55:38;11.18;;;9.98;;
23716;SDS011;22094;52.130;5.598;2023-04-01T18:58:20;10.95;;;9.35;;
23716;SDS011;22094;52.130;5.598;2023-04-01T19:09:20;8.70;;;7.80;;
23716;SDS011;22094;52.130;5.598;2023-04-01T19:12:08;8.95;;;7.38;;
23716;SDS011;22094;52.130;5.598;2023-04-01T19:14:52;7.90;;;7.07;;
23716;SDS011;22094;52.130;5.598;2023-04-01T19:23:31;8.95;;;8.05;;
23716;SDS011;22094;52.130;5.598;2023-04-01T19:26:22;8.38;;;7.57;;
23716;SDS011;22094;52.130;5.598;2023-04-01T19:29:30;9.13;;;7.72;;
23716;SDS011;22094;52.130;5.598;2023-04-01T19:37:38;10.82;;;9.73;;
23716;SDS011;22094;52.130;5.598;2023-04-01T19:43:07;10.13;;;9.13;;
23716;SDS011;22094;52.130;5.598;2023-04-01T19:45:38;11.40;;;9.05;;
23716;SDS011;22094;52.130;5.598;2023-04-01T19:48:17;10.20;;;8.55;;
23716;SDS011;22094;52.130;5.598;2023-04-01T19:54:16;10.82;;;9.13;;
23716;SDS011;22094;52.130;5.598;2023-04-01T20:00:01;13.85;;;10.80;;
23716;SDS011;22094;52.130;5.598;2023-04-01T20:02:43;27.58;;;18.92;;
23716;SDS011;22094;52.130;5.598;2023-04-01T20:05:23;14.35;;;11.45;;
23716;SDS011;22094;52.130;5.598;2023-04-01T20:10:53;15.07;;;12.90;;
23716;SDS011;22094;52.130;5.598;2023-04-01T20:13:36;15.75;;;13.45;;
23716;SDS011;22094;52.130;5.598;2023-04-01T20:19:45;16.80;;;13.80;;
23716;SDS011;22094;52.130;5.598;2023-04-01T20:22:23;17.13;;;13.48;;
23716;SDS011;22094;52.130;5.598;2023-04-01T20:24:59;18.75;;;15.10;;
23716;SDS011;22094;52.130;5.598;2023-04-01T20:27:36;19.92;;;16.55;;
23716;SDS011;22094;52.130;5.598;2023-04-01T20:44:13;26.58;;;19.73;;
23716;SDS011;22094;52.130;5.598;2023-04-01T20:47:03;26.33;;;20.25;;
23716;SDS011;22094;52.130;5.598;2023-04-01T20:57:56;22.25;;;15.90;;
23716;SDS011;22094;52.130;5.598;2023-04-01T21:00:36;21.17;;;15.95;;
23716;SDS011;22094;52.130;5.598;2023-04-01T21:06:02;21.48;;;15.20;;
23716;SDS011;22094;52.130;5.598;2023-04-01T21:08:51;18.92;;;14.80;;
23716;SDS011;22094;52.130;5.598;2023-04-01T21:31:50;18.27;;;14.13;;
23716;SDS011;22094;52.130;5.598;2023-04-01T21:42:22;19.30;;;14.00;;
23716;SDS011;22094;52.130;5.598;2023-04-01T21:44:55;20.63;;;13.95;;
23716;SDS011;22094;52.130;5.598;2023-04-01T21:52:38;20.48;;;13.93;;
23716;SDS011;22094;52.130;5.598;2023-04-01T22:06:53;20.52;;;15.95;;
23716;SDS011;22094;52.130;5.598;2023-04-01T22:09:50;21.05;;;15.48;;
23716;SDS011;22094;52.130;5.598;2023-04-01T22:12:23;20.45;;;15.55;;
23716;SDS011;22094;52.130;5.598;2023-04-01T22:17:28;21.98;;;16.05;;
23716;SDS011;22094;52.130;5.598;2023-04-01T22:23:01;21.88;;;15.73;;
23716;SDS011;22094;52.130;5.598;2023-04-01T22:25:59;20.83;;;15.95;;
23716;SDS011;22094;52.130;5.598;2023-04-01T22:31:02;24.55;;;17.40;;
23716;SDS011;22094;52.130;5.598;2023-04-01T22:33:32;24.27;;;17.40;;
23716;SDS011;22094;52.130;5.598;2023-04-01T22:44:20;22.77;;;17.38;;
23716;SDS011;22094;52.130;5.598;2023-04-01T22:46:53;24.85;;;18.25;;
23716;SDS011;22094;52.130;5.598;2023-04-01T22:49:29;22.88;;;17.38;;
23716;SDS011;22094;52.130;5.598;2023-04-01T22:52:05;21.50;;;16.92;;
23716;SDS011;22094;52.130;5.598;2023-04-01T22:54:44;23.98;;;17.75;;
23716;SDS011;22094;52.130;5.598;2023-04-01T23:00:05;25.27;;;17.80;;
23716;SDS011;22094;52.130;5.598;2023-04-01T23:02:43;25.90;;;18.15;;
23716;SDS011;22094;52.130;5.598;2023-04-01T23:05:14;22.35;;;17.55;;
23716;SDS011;22094;52.130;5.598;2023-04-01T23:07:56;22.33;;;17.27;;
23716;SDS011;22094;52.130;5.598;2023-04-01T23:10:46;23.30;;;18.48;;
23716;SDS011;22094;52.130;5.598;2023-04-01T23:13:21;23.02;;;17.50;;
23716;SDS011;22094;52.130;5.598;2023-04-01T23:15:52;23.42;;;18.38;;
23716;SDS011;22094;52.130;5.598;2023-04-01T23:18:24;27.25;;;18.88;;
23716;SDS011;22094;52.130;5.598;2023-04-01T23:24:22;27.27;;;19.73;;
23716;SDS011;22094;52.130;5.598;2023-04-01T23:27:02;24.05;;;18.25;;
23716;SDS011;22094;52.130;5.598;2023-04-01T23:29:52;25.25;;;18.67;;
23716;SDS011;22094;52.130;5.598;2023-04-01T23:32:23;28.85;;;19.00;;
23716;SDS011;22094;52.130;5.598;2023-04-01T23:34:51;23.73;;;18.10;;
23716;SDS011;22094;52.130;5.598;2023-04-01T23:37:18;24.48;;;18.85;;
23716;SDS011;22094;52.130;5.598;2023-04-01T23:39:46;25.23;;;18.23;;
23716;SDS011;22094;52.130;5.598;2023-04-01T23:42:19;27.77;;;18.40;;
23716;SDS011;22094;52.130;5.598;2023-04-01T23:44:57;23.17;;;17.90;;
23716;SDS011;22094;52.130;5.598;2023-04-01T23:47:32;23.30;;;17.25;;
23716;SDS011;22094;52.130;5.598;2023-04-01T23:50:04;23.42;;;17.52;;
23716;SDS011;22094;52.130;5.598;2023-04-01T23:52:42;23.08;;;17.23;;
23716;SDS011;22094;52.130;5.598;2023-04-01T23:55:18;25.23;;;17.88;;
23716;SDS011;22094;52.130;5.598;2023-04-01T23:58:00;22.38;;;17.23;;
